Time;durP1;ratioP1;P1;durP2;ratioP2;P2;SDS_P1;SDS_P2;PMS_P1;PMS_P2;Temp;Humidity;BMP_temperature;BMP_pressure;BME280_temperature;BME280_humidity;BME280_pressure;Samples;Min_cycle;Max_cycle;Signal;HPM_P1;HPM_P2
2023/06/22 00:01:49;;;;;;;7.15;6.45;;;19.60;99.90;;;;;;5055138;28;20184;-62
2023/06/22 00:04:15;;;;;;;7.70;6.70;;;19.50;99.90;;;;;;5055042;28;20574;-62
2023/06/22 00:06:40;;;;;;;7.93;6.88;;;19.40;99.90;;;;;;5055241;28;20356;-61
2023/06/22 00:09:06;;;;;;;6.75;6.05;;;19.50;99.90;;;;;;5054849;28;20186;-61
2023/06/22 00:11:33;;;;;;;7.10;6.30;;;19.50;99.90;;;;;;5055101;28;20182;-62
2023/06/22 00:13:59;;;;;;;7.15;6.15;;;19.60;99.90;;;;;;5055028;28;20183;-62
2023/06/22 00:16:25;;;;;;;7.40;6.70;;;19.70;99.90;;;;;;5054852;28;20524;-62
2023/06/22 00:18:51;;;;;;;7.53;6.82;;;19.70;99.90;;;;;;5054539;28;20235;-61
2023/06/22 00:21:17;;;;;;;8.35;7.50;;;19.50;99.90;;;;;;5054750;28;20179;-61
2023/06/22 00:23:43;;;;;;;7.88;7.07;;;19.50;99.90;;;;;;5053877;28;20168;-61
2023/06/22 00:26:08;;;;;;;7.25;6.55;;;19.30;99.90;;;;;;5054745;28;20176;-62
2023/06/22 00:28:34;;;;;;;8.27;7.10;;;19.30;99.90;;;;;;5054601;28;20318;-61
2023/06/22 00:31:00;;;;;;;8.38;7.40;;;19.30;99.90;;;;;;5054542;28;20179;-61
2023/06/22 00:33:26;;;;;;;7.90;7.10;;;19.20;99.90;;;;;;5054435;28;20734;-61
2023/06/22 00:35:53;;;;;;;7.70;6.97;;;19.30;99.90;;;;;;5054433;28;20167;-61
2023/06/22 00:38:19;;;;;;;8.00;7.20;;;19.30;99.90;;;;;;5054263;28;20194;-61
2023/06/22 00:40:45;;;;;;;7.95;7.15;;;19.10;99.90;;;;;;5054332;28;20227;-61
2023/06/22 00:43:10;;;;;;;8.07;6.85;;;19.00;99.90;;;;;;5054404;28;20172;-61
2023/06/22 00:45:36;;;;;;;8.00;7.20;;;19.10;99.90;;;;;;5054293;28;20180;-61
2023/06/22 00:48:03;;;;;;;7.28;6.57;;;19.00;99.90;;;;;;5054291;28;20175;-61
2023/06/22 00:50:33;;;;;;;8.07;7.20;;;18.90;99.90;;;;;;5036238;28;20179;-61
2023/06/22 00:53:08;;;;;;;7.68;6.88;;;19.00;99.90;;;;;;5053968;28;20194;-61
2023/06/22 00:55:38;;;;;;;9.07;7.25;;;18.90;99.90;;;;;;5054364;28;20171;-61
2023/06/22 00:58:10;;;;;;;8.18;7.38;;;18.90;99.90;;;;;;5054141;28;20281;-62
2023/06/22 01:00:36;;;;;;;9.40;6.97;;;19.00;99.90;;;;;;5054087;28;20215;-61
2023/06/22 01:03:02;;;;;;;8.50;6.80;;;19.00;99.90;;;;;;5035994;28;20505;-61
2023/06/22 01:05:31;;;;;;;7.85;6.72;;;19.10;99.90;;;;;;5053767;28;20174;-61
2023/06/22 01:08:25;;;;;;;7.95;7.20;;;19.10;99.90;;;;;;5053972;28;20179;-61
2023/06/22 01:10:52;;;;;;;7.65;6.85;;;19.10;99.90;;;;;;5053896;28;20171;-61
2023/06/22 01:13:44;;;;;;;7.10;6.43;;;19.00;99.90;;;;;;5053656;28;20184;-61
2023/06/22 01:16:16;;;;;;;8.63;6.75;;;19.10;99.90;;;;;;5053870;28;20175;-61
2023/06/22 01:18:43;;;;;;;7.07;6.38;;;19.00;99.90;;;;;;5054113;28;20761;-62
2023/06/22 01:21:14;;;;;;;7.30;6.57;;;18.90;99.90;;;;;;5054506;28;20228;-61
2023/06/22 01:23:50;;;;;;;9.05;7.40;;;19.10;99.90;;;;;;5054266;28;20175;-61
2023/06/22 01:26:27;;;;;;;7.15;6.38;;;19.00;99.90;;;;;;5054187;28;20195;-61
2023/06/22 01:28:55;;;;;;;7.60;6.40;;;19.00;99.90;;;;;;5054338;28;20175;-61
2023/06/22 01:31:24;;;;;;;7.60;6.88;;;19.10;99.90;;;;;;5054119;28;20174;-61
2023/06/22 01:34:00;;;;;;;7.82;7.13;;;18.90;99.90;;;;;;5054089;28;20175;-61
2023/06/22 01:36:27;;;;;;;7.25;6.55;;;18.90;99.90;;;;;;5053169;28;20167;-61
2023/06/22 01:38:54;;;;;;;7.40;6.70;;;19.00;99.90;;;;;;5053876;28;20206;-61
2023/06/22 01:41:21;;;;;;;7.65;6.80;;;18.90;99.90;;;;;;5036339;28;20650;-61
2023/06/22 01:43:48;;;;;;;8.38;7.45;;;18.90;99.90;;;;;;5053861;28;20655;-61
2023/06/22 01:46:14;;;;;;;7.70;6.57;;;18.80;99.90;;;;;;5053828;28;20186;-61
2023/06/22 01:48:41;;;;;;;8.52;7.00;;;18.60;99.90;;;;;;5053844;28;20655;-61
2023/06/22 01:51:07;;;;;;;7.85;7.05;;;18.70;99.90;;;;;;5053865;28;20179;-62
2023/06/22 01:53:32;;;;;;;7.18;6.45;;;18.80;99.90;;;;;;5053679;28;20182;-61
2023/06/22 01:55:58;;;;;;;8.57;6.68;;;18.90;99.90;;;;;;5053833;28;20534;-61
2023/06/22 01:58:27;;;;;;;7.95;7.15;;;18.80;99.90;;;;;;5053732;28;20197;-61
2023/06/22 02:01:12;;;;;;;7.22;6.53;;;18.70;99.90;;;;;;5053752;28;20195;-61
2023/06/22 02:03:42;;;;;;;7.82;7.00;;;18.80;99.90;;;;;;5053694;28;20533;-61
2023/06/22 02:06:14;;;;;;;8.13;6.78;;;18.80;99.90;;;;;;5053778;28;20168;-61
2023/06/22 02:09:00;;;;;;;8.40;7.60;;;18.80;99.90;;;;;;5053649;28;20180;-61
2023/06/22 02:11:27;;;;;;;8.60;7.65;;;18.90;99.90;;;;;;5053722;28;20656;-61
2023/06/22 02:13:54;;;;;;;8.23;7.32;;;18.80;99.90;;;;;;5053459;28;20167;-61
2023/06/22 02:16:20;;;;;;;7.72;7.03;;;18.80;99.90;;;;;;5053312;28;20182;-61
2023/06/22 02:18:47;;;;;;;10.02;6.97;;;18.80;99.90;;;;;;5053570;28;20231;-61
2023/06/22 02:21:13;;;;;;;8.80;7.32;;;18.80;99.90;;;;;;5053311;28;20699;-61
2023/06/22 02:23:38;;;;;;;8.23;7.35;;;18.90;99.90;;;;;;5053397;28;20214;-61
2023/06/22 02:26:04;;;;;;;8.73;7.60;;;18.90;99.90;;;;;;5035523;28;20251;-61
2023/06/22 02:28:30;;;;;;;7.97;7.15;;;18.80;99.90;;;;;;5035490;28;20172;-62
2023/06/22 02:30:55;;;;;;;8.10;7.30;;;18.80;99.90;;;;;;5053075;28;20632;-61
2023/06/22 02:33:21;;;;;;;8.43;6.90;;;18.90;99.90;;;;;;5053359;28;20176;-61
2023/06/22 02:35:48;;;;;;;8.93;6.75;;;18.90;99.90;;;;;;5053522;28;20262;-61
2023/06/22 02:38:14;;;;;;;8.65;7.47;;;18.90;99.90;;;;;;5053146;28;20190;-61
2023/06/22 02:40:40;;;;;;;10.00;6.80;;;18.90;99.90;;;;;;5053231;28;20207;-61
2023/06/22 02:43:06;;;;;;;7.75;6.28;;;18.90;99.90;;;;;;5053059;28;20553;-60
2023/06/22 02:45:31;;;;;;;7.72;6.68;;;18.80;99.90;;;;;;5052925;28;20528;-61
2023/06/22 02:47:57;;;;;;;8.00;7.18;;;18.90;99.90;;;;;;5055752;28;20176;-61
2023/06/22 02:50:23;;;;;;;7.80;7.00;;;18.90;99.90;;;;;;5057258;28;20579;-62
2023/06/22 02:52:49;;;;;;;10.02;6.68;;;18.90;99.90;;;;;;5057440;28;20258;-61
2023/06/22 02:55:15;;;;;;;7.25;6.20;;;18.70;99.90;;;;;;5057390;28;20175;-63
2023/06/22 02:57:43;;;;;;;7.95;6.53;;;18.80;99.90;;;;;;5057043;28;20620;-61
2023/06/22 03:00:19;;;;;;;8.55;6.40;;;18.90;99.90;;;;;;5056921;28;20555;-61
2023/06/22 03:02:46;;;;;;;9.90;7.15;;;18.90;99.90;;;;;;5057279;28;20195;-61
2023/06/22 03:05:13;;;;;;;7.93;6.32;;;18.70;99.90;;;;;;5057260;28;20258;-62
2023/06/22 03:07:43;;;;;;;8.45;6.97;;;18.80;99.90;;;;;;5056904;28;20237;-61
2023/06/22 03:10:09;;;;;;;7.07;6.32;;;18.80;99.90;;;;;;5056977;28;20183;-61
2023/06/22 03:12:36;;;;;;;8.38;6.15;;;18.60;99.90;;;;;;5056730;28;20175;-61
2023/06/22 03:15:02;;;;;;;7.05;6.35;;;18.60;99.90;;;;;;5057026;28;20182;-61
2023/06/22 03:17:27;;;;;;;8.05;6.47;;;18.60;99.90;;;;;;5056341;28;20700;-61
2023/06/22 03:19:53;;;;;;;7.40;6.70;;;18.70;99.90;;;;;;5056674;28;20206;-61
2023/06/22 03:22:18;;;;;;;7.30;6.60;;;18.80;99.90;;;;;;5056690;28;20186;-61
2023/06/22 03:24:44;;;;;;;6.60;6.00;;;18.70;99.90;;;;;;5056640;28;20644;-61
2023/06/22 03:27:10;;;;;;;6.93;6.22;;;18.70;99.90;;;;;;5056566;28;20179;-61
2023/06/22 03:29:35;;;;;;;7.03;6.32;;;18.60;99.90;;;;;;5056628;28;20207;-61
2023/06/22 03:32:01;;;;;;;7.38;6.30;;;18.50;99.90;;;;;;5056390;28;20167;-61
2023/06/22 03:34:27;;;;;;;6.97;6.25;;;18.50;99.90;;;;;;5056440;28;20179;-61
2023/06/22 03:36:53;;;;;;;8.23;6.75;;;18.40;99.90;;;;;;5056421;28;20221;-61
2023/06/22 03:39:18;;;;;;;7.28;6.10;;;18.30;99.90;;;;;;5056171;28;20672;-61
2023/06/22 03:41:44;;;;;;;7.20;6.47;;;18.30;99.90;;;;;;5056125;28;20175;-61
2023/06/22 03:44:12;;;;;;;7.63;6.53;;;18.30;99.90;;;;;;5056481;28;20171;-61
2023/06/22 03:46:38;;;;;;;9.15;6.93;;;18.40;99.90;;;;;;5056219;28;20190;-61
2023/06/22 03:49:04;;;;;;;6.75;6.00;;;18.50;99.90;;;;;;5056459;28;20179;-61
2023/06/22 03:51:30;;;;;;;7.55;5.82;;;18.40;99.90;;;;;;5056190;28;20179;-61
2023/06/22 03:53:56;;;;;;;6.50;5.90;;;18.40;99.90;;;;;;5056044;28;20175;-61
2023/06/22 03:56:21;;;;;;;6.95;6.35;;;18.40;99.90;;;;;;5055956;28;20183;-61
2023/06/22 03:58:47;;;;;;;7.80;6.22;;;18.40;99.90;;;;;;5054611;28;20532;-61
2023/06/22 04:01:12;;;;;;;8.63;7.10;;;18.40;99.90;;;;;;5056097;28;20182;-61
2023/06/22 04:03:39;;;;;;;9.63;6.63;;;18.40;99.90;;;;;;5055860;28;20536;-61
2023/06/22 04:06:04;;;;;;;7.60;6.07;;;18.40;99.90;;;;;;5055996;28;20607;-61
2023/06/22 04:08:30;;;;;;;9.15;6.50;;;18.40;99.90;;;;;;5055872;28;20202;-61
2023/06/22 04:10:56;;;;;;;7.30;6.60;;;18.30;99.90;;;;;;5037787;28;20194;-61
2023/06/22 04:13:22;;;;;;;9.02;6.45;;;18.30;99.90;;;;;;5055566;28;20175;-61
2023/06/22 04:15:47;;;;;;;7.80;6.60;;;18.40;99.90;;;;;;5055687;28;20229;-61
2023/06/22 04:18:13;;;;;;;6.13;5.53;;;18.40;99.90;;;;;;5055509;28;20249;-61
2023/06/22 04:20:39;;;;;;;8.32;7.20;;;18.50;99.90;;;;;;5037721;28;20233;-61
2023/06/22 04:23:05;;;;;;;9.63;7.10;;;18.40;99.90;;;;;;5037135;28;20179;-61
2023/06/22 04:25:30;;;;;;;7.85;7.05;;;18.20;99.90;;;;;;5055350;28;20228;-61
2023/06/22 04:27:56;;;;;;;8.23;6.75;;;18.20;99.90;;;;;;5055404;28;20679;-60
2023/06/22 04:30:22;;;;;;;8.52;7.63;;;18.30;99.90;;;;;;5055520;28;20633;-60
2023/06/22 04:32:57;;;;;;;9.02;7.88;;;18.30;99.90;;;;;;5055488;28;20182;-60
2023/06/22 04:35:24;;;;;;;9.48;7.63;;;18.30;99.90;;;;;;5055349;28;20179;-60
2023/06/22 04:37:50;;;;;;;8.80;8.00;;;18.40;99.90;;;;;;5055041;28;20301;-61
2023/06/22 04:40:16;;;;;;;9.40;7.88;;;18.40;99.90;;;;;;5054982;28;20206;-60
2023/06/22 04:42:51;;;;;;;9.70;7.85;;;18.40;99.90;;;;;;5055192;28;20171;-60
2023/06/22 04:45:17;;;;;;;10.20;8.07;;;18.40;99.90;;;;;;5044185;28;20188;-60
2023/06/22 04:47:45;;;;;;;10.30;8.65;;;18.40;99.90;;;;;;5035108;28;20175;-60
2023/06/22 04:50:14;;;;;;;10.05;8.52;;;18.50;99.90;;;;;;5034930;28;20271;-60
2023/06/22 04:52:40;;;;;;;9.43;8.45;;;18.60;99.90;;;;;;5034793;28;20186;-60
2023/06/22 04:55:06;;;;;;;10.07;8.77;;;18.60;99.90;;;;;;5034804;28;20262;-60
2023/06/22 04:57:32;;;;;;;12.30;9.10;;;18.60;99.90;;;;;;5034883;28;20183;-61
2023/06/22 05:00:10;;;;;;;12.32;9.05;;;18.70;99.90;;;;;;5034877;28;20208;-60
2023/06/22 05:02:37;;;;;;;9.85;8.25;;;18.80;99.90;;;;;;5034807;28;20274;-58
2023/06/22 05:05:06;;;;;;;14.38;9.50;;;18.90;99.90;;;;;;5034532;28;20660;-60
2023/06/22 05:07:35;;;;;;;12.43;9.60;;;19.00;99.90;;;;;;5034441;28;20172;-59
2023/06/22 05:10:02;;;;;;;12.95;10.13;;;19.20;99.90;;;;;;5034668;28;20267;-59
2023/06/22 05:12:29;;;;;;;11.63;9.80;;;19.20;99.90;;;;;;5034618;28;20667;-59
2023/06/22 05:14:54;;;;;;;12.35;9.80;;;19.20;99.90;;;;;;5034625;28;20203;-59
2023/06/22 05:17:20;;;;;;;10.18;9.13;;;19.40;99.90;;;;;;5034611;28;20266;-59
2023/06/22 05:19:49;;;;;;;10.93;9.60;;;19.40;99.90;;;;;;5034268;28;20642;-59
2023/06/22 05:22:15;;;;;;;12.23;9.82;;;19.40;99.90;;;;;;5034518;28;20176;-59
2023/06/22 05:24:42;;;;;;;10.90;9.80;;;19.30;99.90;;;;;;5034482;28;20267;-59
2023/06/22 05:27:08;;;;;;;13.40;11.20;;;19.20;99.90;;;;;;5034395;28;20179;-60
2023/06/22 05:29:35;;;;;;;11.05;9.82;;;19.20;99.90;;;;;;5034343;28;20180;-60
2023/06/22 05:32:01;;;;;;;12.95;10.63;;;19.30;99.90;;;;;;5034396;28;20272;-59
2023/06/22 05:34:26;;;;;;;14.63;11.55;;;19.40;99.90;;;;;;5034087;28;20258;-59
2023/06/22 05:36:52;;;;;;;12.88;11.30;;;19.30;99.90;;;;;;5034013;28;20215;-59
2023/06/22 05:39:17;;;;;;;13.23;11.85;;;19.40;99.90;;;;;;5034230;28;20752;-60
2023/06/22 05:41:45;;;;;;;14.70;11.82;;;19.50;99.90;;;;;;5034111;28;20207;-60
2023/06/22 05:44:10;;;;;;;12.45;11.15;;;19.60;99.90;;;;;;5034148;28;20525;-59
2023/06/22 05:46:36;;;;;;;13.18;11.30;;;19.60;99.90;;;;;;5016201;28;20176;-59
2023/06/22 05:49:02;;;;;;;14.07;11.63;;;19.80;99.90;;;;;;5033830;28;20183;-59
2023/06/22 05:51:28;;;;;;;13.88;11.40;;;19.90;99.90;;;;;;5033748;28;20168;-59
2023/06/22 05:53:53;;;;;;;18.20;13.23;;;19.90;99.90;;;;;;5033999;28;20637;-60
2023/06/22 05:56:19;;;;;;;14.48;12.82;;;19.90;99.90;;;;;;5034062;28;20180;-60
2023/06/22 05:58:46;;;;;;;15.57;13.60;;;20.00;99.90;;;;;;5033670;28;20176;-60
2023/06/22 06:01:12;;;;;;;15.75;12.70;;;20.20;99.90;;;;;;5033728;28;20180;-60
2023/06/22 06:03:41;;;;;;;18.23;14.32;;;20.20;99.90;;;;;;5033633;28;20525;-60
2023/06/22 06:06:07;;;;;;;15.80;12.77;;;20.10;99.90;;;;;;5033741;28;20187;-60
2023/06/22 06:08:33;;;;;;;15.68;13.98;;;20.20;99.90;;;;;;5033803;28;20176;-59
2023/06/22 06:10:58;;;;;;;15.23;13.60;;;20.20;99.90;;;;;;5033994;28;20572;-60
2023/06/22 06:13:24;;;;;;;15.68;14.05;;;20.30;99.90;;;;;;5033652;28;20587;-60
2023/06/22 06:15:55;;;;;;;15.85;14.25;;;20.30;99.90;;;;;;5033719;28;20176;-59
2023/06/22 06:18:21;;;;;;;15.88;14.18;;;20.40;99.90;;;;;;5033130;28;20585;-60
2023/06/22 06:20:46;;;;;;;16.08;14.38;;;20.50;99.90;;;;;;5033562;28;20211;-60
2023/06/22 06:23:12;;;;;;;15.77;14.15;;;20.50;99.90;;;;;;5032984;28;20176;-59
2023/06/22 06:25:38;;;;;;;18.92;16.13;;;20.60;99.90;;;;;;5033593;28;20198;-59
2023/06/22 06:28:04;;;;;;;17.50;15.75;;;20.50;99.90;;;;;;5033461;28;20176;-60
2023/06/22 06:30:30;;;;;;;17.48;15.68;;;20.60;99.90;;;;;;5033312;28;20221;-59
2023/06/22 06:32:55;;;;;;;17.60;15.73;;;20.60;99.90;;;;;;5033284;28;20259;-60
2023/06/22 06:35:21;;;;;;;19.05;16.42;;;20.60;99.90;;;;;;5033468;28;20187;-60
2023/06/22 06:37:49;;;;;;;18.17;16.27;;;20.70;99.90;;;;;;5033358;28;20182;-59
2023/06/22 06:40:16;;;;;;;18.85;16.88;;;20.80;99.90;;;;;;5033146;28;20199;-60
2023/06/22 06:42:45;;;;;;;19.98;16.85;;;20.80;99.90;;;;;;5033186;28;20537;-59
2023/06/22 06:45:18;;;;;;;18.30;16.52;;;20.70;99.90;;;;;;5033230;28;20170;-59
2023/06/22 06:47:44;;;;;;;20.02;17.95;;;20.80;99.90;;;;;;5033152;28;20175;-59
2023/06/22 06:50:11;;;;;;;20.23;17.63;;;20.80;99.90;;;;;;5033282;28;20176;-59
2023/06/22 06:52:37;;;;;;;19.58;17.38;;;20.70;99.90;;;;;;5033188;28;20190;-60
2023/06/22 06:55:04;;;;;;;19.20;17.25;;;20.70;99.90;;;;;;5033142;28;20258;-60
2023/06/22 06:57:30;;;;;;;18.92;16.83;;;20.70;99.90;;;;;;5032988;28;20607;-59
2023/06/22 06:59:56;;;;;;;20.48;17.80;;;20.60;99.90;;;;;;5032846;28;20287;-59
2023/06/22 07:02:23;;;;;;;21.15;18.42;;;20.70;99.90;;;;;;5033119;28;20176;-59
2023/06/22 07:04:49;;;;;;;19.60;17.65;;;20.70;99.90;;;;;;5033187;28;20180;-59
2023/06/22 07:07:15;;;;;;;21.02;18.75;;;20.80;99.90;;;;;;5032983;28;20637;-60
2023/06/22 07:09:40;;;;;;;20.20;18.05;;;20.70;99.90;;;;;;5032940;28;20187;-60
2023/06/22 07:12:07;;;;;;;20.10;18.00;;;20.80;99.90;;;;;;5032874;28;20271;-59
2023/06/22 07:14:32;;;;;;;19.70;17.80;;;20.80;99.90;;;;;;5032842;28;20176;-60
2023/06/22 07:16:58;;;;;;;19.73;17.83;;;20.90;99.90;;;;;;5032518;28;20370;-59
2023/06/22 07:19:28;;;;;;;20.50;18.35;;;21.00;99.90;;;;;;5032671;28;20703;-60
2023/06/22 07:21:57;;;;;;;22.02;18.73;;;21.00;99.90;;;;;;5032898;28;20518;-60
2023/06/22 07:24:24;;;;;;;20.40;18.30;;;21.20;99.90;;;;;;5032930;28;20266;-60
2023/06/22 07:26:50;;;;;;;21.10;18.92;;;21.30;99.90;;;;;;5032975;28;20254;-60
2023/06/22 07:29:23;;;;;;;19.65;17.60;;;21.10;99.90;;;;;;5032715;28;20237;-59
2023/06/22 07:31:51;;;;;;;19.60;17.23;;;21.10;99.90;;;;;;5032813;28;20199;-60
2023/06/22 07:34:17;;;;;;;20.55;17.95;;;21.10;99.90;;;;;;5035494;28;20191;-60
2023/06/22 07:36:43;;;;;;;19.23;16.73;;;21.20;99.90;;;;;;5036493;28;20259;-59
2023/06/22 07:39:09;;;;;;;18.40;16.63;;;21.20;99.90;;;;;;5036308;28;20207;-60
2023/06/22 07:41:35;;;;;;;19.35;17.38;;;21.30;99.90;;;;;;5036386;28;20176;-60
2023/06/22 07:44:01;;;;;;;18.67;16.75;;;21.30;99.90;;;;;;5036253;28;20534;-59
2023/06/22 07:46:29;;;;;;;21.58;17.50;;;21.40;99.90;;;;;;5036182;28;20199;-60
2023/06/22 07:48:56;;;;;;;18.20;16.27;;;21.40;99.90;;;;;;5036187;28;20172;-60
2023/06/22 07:51:21;;;;;;;18.42;16.55;;;21.40;99.90;;;;;;5036213;28;20180;-59
2023/06/22 07:53:47;;;;;;;16.85;15.25;;;21.50;99.90;;;;;;5036161;28;20179;-60
2023/06/22 07:56:18;;;;;;;16.25;14.60;;;21.40;99.90;;;;;;5035998;28;20215;-60
2023/06/22 07:58:45;;;;;;;17.55;15.23;;;21.60;99.90;;;;;;5035966;28;20187;-59
2023/06/22 08:01:11;;;;;;;16.38;13.13;;;21.70;99.90;;;;;;5036152;28;20689;-59
2023/06/22 08:03:36;;;;;;;15.07;13.52;;;21.70;99.90;;;;;;5035925;28;20257;-60
2023/06/22 08:06:03;;;;;;;16.20;14.50;;;21.60;99.90;;;;;;5036225;28;20557;-60
2023/06/22 08:08:29;;;;;;;14.57;13.10;;;21.60;99.90;;;;;;5035866;28;20198;-60
2023/06/22 08:10:54;;;;;;;14.27;12.57;;;21.70;99.90;;;;;;5035704;28;20183;-60
2023/06/22 08:13:20;;;;;;;16.08;12.82;;;21.50;99.90;;;;;;5035861;28;20183;-59
2023/06/22 08:15:46;;;;;;;15.43;13.82;;;21.50;99.90;;;;;;5035808;28;20545;-60
2023/06/22 08:18:11;;;;;;;15.43;13.93;;;21.50;99.90;;;;;;5035453;28;20235;-60
2023/06/22 08:20:37;;;;;;;15.20;13.60;;;21.50;99.90;;;;;;5017896;28;20214;-59
2023/06/22 08:23:06;;;;;;;15.10;13.55;;;21.60;99.90;;;;;;5035587;28;20264;-60
2023/06/22 08:25:35;;;;;;;14.90;13.45;;;21.60;99.90;;;;;;5035444;28;20808;-60
2023/06/22 08:28:02;;;;;;;15.00;13.50;;;21.50;99.90;;;;;;5035605;28;20216;-60
2023/06/22 08:30:28;;;;;;;15.27;13.88;;;21.60;99.90;;;;;;5035554;28;20183;-60
2023/06/22 08:32:56;;;;;;;15.93;12.95;;;21.60;99.90;;;;;;5035529;28;20172;-60
2023/06/22 08:35:23;;;;;;;15.77;14.18;;;21.70;99.90;;;;;;5035426;28;20208;-60
2023/06/22 08:37:52;;;;;;;15.35;13.80;;;21.80;99.90;;;;;;5035156;28;20640;-60
2023/06/22 08:40:19;;;;;;;15.65;13.77;;;21.80;99.90;;;;;;5035003;28;20222;-59
2023/06/22 08:42:46;;;;;;;16.08;14.50;;;21.70;99.90;;;;;;5035297;28;20203;-60
2023/06/22 08:45:12;;;;;;;15.80;14.27;;;21.70;99.90;;;;;;5034522;28;20610;-60
2023/06/22 08:47:39;;;;;;;16.45;14.68;;;21.70;99.90;;;;;;5035034;28;20263;-60
2023/06/22 08:50:06;;;;;;;16.15;13.95;;;21.80;99.90;;;;;;5035104;28;20231;-60
2023/06/22 08:52:32;;;;;;;15.75;14.15;;;21.70;99.90;;;;;;5017547;28;20225;-60
2023/06/22 08:55:00;;;;;;;16.40;14.48;;;21.50;99.90;;;;;;5034754;28;20176;-60
2023/06/22 08:57:30;;;;;;;16.77;15.07;;;21.50;99.90;;;;;;5035041;28;20168;-60
2023/06/22 08:59:58;;;;;;;15.95;14.32;;;21.70;99.90;;;;;;5034795;28;20203;-59
2023/06/22 09:02:30;;;;;;;17.60;14.05;;;21.80;99.90;;;;;;5034809;28;20190;-60
2023/06/22 09:04:58;;;;;;;15.85;14.30;;;21.70;99.90;;;;;;5034796;28;20176;-60
2023/06/22 09:07:25;;;;;;;16.52;14.75;;;21.50;99.90;;;;;;5034583;28;20172;-60
2023/06/22 09:09:51;;;;;;;17.85;15.38;;;21.50;99.90;;;;;;5034805;28;20184;-60
2023/06/22 09:12:19;;;;;;;16.00;14.52;;;21.50;99.90;;;;;;5034648;28;20271;-60
2023/06/22 09:14:46;;;;;;;16.98;14.45;;;21.40;99.90;;;;;;5034521;28;20172;-60
2023/06/22 09:17:13;;;;;;;15.10;13.68;;;21.30;99.90;;;;;;5034483;28;20223;-60
2023/06/22 09:19:38;;;;;;;16.30;14.27;;;21.30;99.90;;;;;;5034416;28;20206;-60
2023/06/22 09:22:06;;;;;;;16.13;14.55;;;21.30;99.90;;;;;;5034371;28;20255;-60
2023/06/22 09:24:32;;;;;;;21.90;16.55;;;21.40;99.90;;;;;;5034465;28;20179;-60
2023/06/22 09:26:58;;;;;;;17.00;15.23;;;21.50;99.90;;;;;;5034465;28;20175;-60
2023/06/22 09:29:24;;;;;;;15.93;14.35;;;21.50;99.90;;;;;;5034176;28;20266;-60
2023/06/22 09:31:49;;;;;;;15.90;14.38;;;21.60;99.90;;;;;;5033827;28;20609;-60
2023/06/22 09:34:20;;;;;;;15.75;14.23;;;21.50;99.90;;;;;;5016500;28;20212;-60
2023/06/22 09:36:48;;;;;;;17.33;14.88;;;21.50;99.90;;;;;;5033999;28;20182;-60
2023/06/22 09:39:14;;;;;;;16.40;14.85;;;21.50;99.90;;;;;;5034253;28;20216;-60
2023/06/22 09:41:40;;;;;;;16.83;15.00;;;21.50;99.90;;;;;;5034112;28;20187;-60
2023/06/22 09:44:05;;;;;;;16.30;14.63;;;21.40;99.90;;;;;;5034070;28;20186;-60
2023/06/22 09:46:31;;;;;;;16.45;14.75;;;21.40;99.90;;;;;;5033946;28;20183;-59
2023/06/22 09:48:56;;;;;;;18.38;16.33;;;21.40;99.90;;;;;;5033781;28;20176;-60
2023/06/22 09:51:23;;;;;;;16.90;15.30;;;21.50;99.90;;;;;;5033809;28;20313;-60
2023/06/22 09:53:50;;;;;;;16.05;14.40;;;21.30;99.90;;;;;;5033690;28;20178;-60
2023/06/22 09:56:15;;;;;;;16.52;14.93;;;21.40;99.90;;;;;;5033350;28;20176;-60
2023/06/22 09:58:46;;;;;;;16.00;14.35;;;21.40;99.90;;;;;;5033567;28;20660;-60
2023/06/22 10:01:14;;;;;;;16.35;14.75;;;21.50;99.90;;;;;;5033819;28;20207;-60
2023/06/22 10:03:41;;;;;;;17.20;15.43;;;21.50;99.90;;;;;;5033526;28;20230;-60
2023/06/22 10:06:07;;;;;;;16.38;14.88;;;21.50;99.90;;;;;;5033780;28;20228;-60
2023/06/22 10:08:33;;;;;;;17.70;15.90;;;21.50;99.90;;;;;;5033660;28;20176;-60
2023/06/22 10:10:59;;;;;;;17.15;15.35;;;21.50;99.90;;;;;;5033636;28;20172;-59
2023/06/22 10:13:24;;;;;;;15.95;14.13;;;21.40;99.90;;;;;;5033553;28;20222;-60
2023/06/22 10:15:51;;;;;;;16.52;14.77;;;21.30;99.90;;;;;;5033518;28;20206;-60
2023/06/22 10:18:18;;;;;;;16.58;14.88;;;21.20;99.90;;;;;;5033139;28;20326;-60
2023/06/22 10:20:47;;;;;;;16.30;14.80;;;21.30;99.90;;;;;;5033513;28;20207;-60
2023/06/22 10:23:12;;;;;;;16.75;14.98;;;21.30;99.90;;;;;;5033428;28;20701;-60
2023/06/22 10:25:38;;;;;;;16.80;15.30;;;21.30;99.90;;;;;;5033368;28;20207;-60
2023/06/22 10:28:04;;;;;;;17.35;15.75;;;21.30;99.90;;;;;;5033295;28;20183;-60
2023/06/22 10:30:29;;;;;;;18.27;16.52;;;21.20;99.90;;;;;;5033280;28;20186;-60
2023/06/22 10:32:55;;;;;;;18.65;16.80;;;21.20;99.90;;;;;;5033155;28;20723;-59
2023/06/22 10:35:21;;;;;;;20.25;18.20;;;21.10;99.90;;;;;;5033430;28;20183;-59
2023/06/22 10:37:47;;;;;;;22.42;20.13;;;21.00;99.90;;;;;;5033527;28;20186;-59
2023/06/22 10:40:14;;;;;;;22.45;20.25;;;20.60;99.90;;;;;;5033257;28;20233;-59
2023/06/22 10:42:41;;;;;;;22.33;20.17;;;20.60;99.90;;;;;;5033159;28;20190;-59
2023/06/22 10:45:07;;;;;;;14.13;12.82;;;20.20;99.90;;;;;;5033124;28;20164;-59
2023/06/22 10:47:34;;;;;;;15.73;14.32;;;19.90;99.90;;;;;;5033008;28;20180;-59
2023/06/22 10:50:00;;;;;;;14.98;13.48;;;19.80;99.90;;;;;;5033281;28;20203;-59
2023/06/22 10:52:25;;;;;;;14.60;13.23;;;19.80;99.90;;;;;;5033154;28;20179;-59
2023/06/22 10:54:52;;;;;;;16.83;15.23;;;19.80;99.90;;;;;;5033135;28;20207;-59
2023/06/22 10:57:18;;;;;;;16.50;15.00;;;19.60;99.90;;;;;;5032905;28;20242;-59
2023/06/22 10:59:44;;;;;;;17.90;16.20;;;19.50;99.90;;;;;;5032888;28;20188;-60
2023/06/22 11:02:09;;;;;;;20.60;18.75;;;19.60;99.90;;;;;;5032936;28;20541;-59
2023/06/22 11:04:35;;;;;;;20.35;17.67;;;19.60;99.90;;;;;;5033102;28;20596;-60
2023/06/22 11:07:01;;;;;;;20.92;18.75;;;19.60;99.90;;;;;;5033089;28;20184;-60
2023/06/22 11:09:26;;;;;;;16.10;14.45;;;19.50;99.90;;;;;;5036178;28;20195;-59
2023/06/22 11:11:55;;;;;;;18.05;14.27;;;19.20;99.90;;;;;;5036944;28;20180;-59
2023/06/22 11:14:22;;;;;;;15.38;13.95;;;19.10;99.90;;;;;;5036819;28;20179;-60
2023/06/22 11:16:48;;;;;;;14.95;13.50;;;18.90;99.90;;;;;;5036513;28;20700;-59
2023/06/22 11:19:13;;;;;;;21.95;13.95;;;18.90;99.90;;;;;;5036818;28;20314;-59
2023/06/22 11:21:39;;;;;;;16.00;14.43;;;18.80;99.90;;;;;;5036737;28;20632;-60
2023/06/22 11:24:05;;;;;;;17.70;15.05;;;18.40;99.90;;;;;;5036838;28;20180;-59
2023/06/22 11:26:31;;;;;;;16.83;15.13;;;18.40;99.90;;;;;;5036559;28;20183;-60
2023/06/22 11:28:58;;;;;;;17.83;15.90;;;18.20;99.90;;;;;;5036497;28;20234;-59
2023/06/22 11:31:23;;;;;;;18.70;16.80;;;18.20;99.90;;;;;;5036441;28;20641;-59
2023/06/22 11:33:49;;;;;;;19.80;17.75;;;18.10;99.90;;;;;;5036692;28;20172;-59
2023/06/22 11:36:15;;;;;;;21.55;19.27;;;18.10;99.90;;;;;;5036570;28;20176;-59
2023/06/22 11:38:42;;;;;;;22.30;19.40;;;18.20;99.90;;;;;;5036831;28;20589;-59
2023/06/22 11:41:08;;;;;;;22.05;19.77;;;18.30;99.90;;;;;;5036335;28;20333;-59
2023/06/22 11:43:34;;;;;;;23.35;20.98;;;18.20;99.90;;;;;;5036279;28;20641;-59
2023/06/22 11:46:03;;;;;;;22.65;20.35;;;18.30;99.90;;;;;;5036053;28;20271;-59
2023/06/22 11:48:29;;;;;;;24.15;21.40;;;18.30;99.90;;;;;;5036345;28;20168;-59
2023/06/22 11:50:55;;;;;;;24.02;21.63;;;18.40;99.90;;;;;;5036308;28;20187;-59
2023/06/22 11:53:26;;;;;;;25.08;22.63;;;18.40;99.90;;;;;;5036157;28;20179;-59
2023/06/22 11:55:53;;;;;;;22.30;20.10;;;18.50;99.90;;;;;;5036171;28;20230;-59
2023/06/22 11:58:19;;;;;;;21.92;19.63;;;18.40;99.90;;;;;;5035906;28;20176;-59
2023/06/22 12:00:45;;;;;;;21.63;19.40;;;18.40;99.90;;;;;;5036224;28;20681;-59
2023/06/22 12:03:11;;;;;;;22.27;19.90;;;18.50;99.90;;;;;;5035831;28;20648;-59
2023/06/22 12:05:38;;;;;;;21.63;19.42;;;18.40;99.90;;;;;;5035918;28;20183;-60
2023/06/22 12:08:04;;;;;;;20.52;18.42;;;18.40;99.90;;;;;;5035858;28;20553;-59
2023/06/22 12:10:30;;;;;;;21.35;19.20;;;18.40;99.90;;;;;;5018153;28;20184;-59
2023/06/22 12:12:57;;;;;;;20.10;17.92;;;18.50;99.90;;;;;;5035567;28;20180;-59
2023/06/22 12:15:23;;;;;;;21.75;19.52;;;18.50;99.90;;;;;;5035624;28;20207;-59
2023/06/22 12:17:49;;;;;;;21.80;19.67;;;18.50;99.90;;;;;;5035492;28;20228;-59
2023/06/22 12:20:15;;;;;;;21.73;18.67;;;18.60;99.90;;;;;;5034697;28;20195;-59
2023/06/22 12:22:41;;;;;;;21.98;19.63;;;18.50;99.90;;;;;;5035634;28;20187;-60
2023/06/22 12:25:10;;;;;;;22.73;20.15;;;18.50;99.90;;;;;;5035453;28;20231;-60
2023/06/22 12:27:36;;;;;;;22.65;20.35;;;18.70;99.90;;;;;;5035296;28;20230;-60
2023/06/22 12:30:02;;;;;;;22.52;20.20;;;18.80;99.90;;;;;;5035624;28;20626;-60
2023/06/22 12:32:28;;;;;;;23.40;21.00;;;18.90;99.90;;;;;;5035476;28;20168;-60
2023/06/22 12:34:55;;;;;;;25.17;21.30;;;19.00;99.90;;;;;;5035507;28;20168;-60